Time;durP1;ratioP1;P1;durP2;ratioP2;P2;SDS_P1;SDS_P2;PMS_P1;PMS_P2;Temp;Humidity;BMP_temperature;BMP_pressure;BME280_temperature;BME280_humidity;BME280_pressure;Samples;Min_cycle;Max_cycle;Signal;HPM_P1;HPM_P2
2023/07/28 00:01:11;;;;;;;;;;;;;;;17.27;100.00;100447.59;5048398;28;19960;-83
2023/07/28 00:03:36;;;;;;;;;;;;;;;17.28;100.00;100453.78;5048264;28;20334;-83
2023/07/28 00:06:01;;;;;;;;;;;;;;;17.28;100.00;100453.78;5047658;28;19919;-82
2023/07/28 00:08:27;;;;;;;;;;;;;;;17.27;100.00;100455.66;5050020;28;20413;-82
2023/07/28 00:10:52;;;;;;;;;;;;;;;17.26;100.00;100445.91;5051068;28;19925;-83
2023/07/28 00:13:18;;;;;;;;;;;;;;;17.26;100.00;100439.72;5049160;28;20000;-83
2023/07/28 00:15:43;;;;;;;;;;;;;;;17.25;100.00;100443.38;5052205;28;19917;-82
2023/07/28 00:18:08;;;;;;;;;;;;;;;17.25;100.00;100446.06;5052734;28;20389;-83
2023/07/28 00:20:33;;;;;;;;;;;;;;;17.25;100.00;100446.06;5048581;28;19917;-83
2023/07/28 00:22:58;;;;;;;;;;;;;;;17.25;100.00;100444.22;5048335;28;19916;-83
2023/07/28 00:25:24;;;;;;;;;;;;;;;17.27;100.00;100444.03;5049264;28;19924;-83
2023/07/28 00:27:49;;;;;;;;;;;;;;;17.26;100.00;100440.53;5046246;28;19917;-83
2023/07/28 00:30:14;;;;;;;;;;;;;;;17.27;100.00;100444.91;5049318;28;19952;-83
2023/07/28 00:32:39;;;;;;;;;;;;;;;17.28;100.00;100443.88;5049050;28;20350;-83
2023/07/28 00:35:05;;;;;;;;;;;;;;;17.29;100.00;100447.41;5047725;28;19916;-83
2023/07/28 00:37:30;;;;;;;;;;;;;;;17.27;100.00;100441.38;5047021;28;20012;-82
2023/07/28 00:39:55;;;;;;;;;;;;;;;17.27;100.00;100444.91;5055829;28;19920;-83
2023/07/28 00:42:20;;;;;;;;;;;;;;;17.26;100.00;100445.91;5054507;28;20007;-83
2023/07/28 00:44:46;;;;;;;;;;;;;;;17.29;100.00;100450.09;5052032;28;19917;-83
2023/07/28 00:47:11;;;;;;;;;;;;;;;17.28;100.00;100443.06;5051044;28;19927;-83
2023/07/28 00:49:37;;;;;;;;;;;;;;;17.26;100.00;100435.16;5051111;28;19924;-83
2023/07/28 00:52:03;;;;;;;;;;;;;;;17.25;100.00;100438.84;5058444;28;19912;-83
2023/07/28 00:54:28;;;;;;;;;;;;;;;17.26;100.00;100439.72;5050768;28;20382;-83
2023/07/28 00:56:53;;;;;;;;;;;;;;;17.25;100.00;100430.78;5050610;28;20247;-83
2023/07/28 00:59:19;;;;;;;;;;;;;;;17.26;100.00;100427.13;5055215;28;20004;-83
2023/07/28 01:01:45;;;;;;;;;;;;;;;17.25;100.00;100427.28;5049336;28;20408;-83
2023/07/28 01:04:10;;;;;;;;;;;;;;;17.25;100.00;100427.28;5051035;28;19974;-83
2023/07/28 01:07:00;;;;;;;;;;;;;;;17.25;100.00;100428.13;5052147;28;19916;-83
2023/07/28 01:09:29;;;;;;;;;;;;;;;17.26;100.00;100442.38;5048210;28;19940;-83
2023/07/28 01:11:55;;;;;;;;;;;;;;;17.25;100.00;100438.03;5052571;28;20420;-83
2023/07/28 01:14:20;;;;;;;;;;;;;;;17.26;100.00;100447.75;5060106;28;20149;-82
2023/07/28 01:16:45;;;;;;;;;;;;;;;17.26;100.00;100437.03;5054854;28;19917;-83
2023/07/28 01:19:11;;;;;;;;;;;;;;;17.26;100.00;100448.59;5047429;28;19913;-83
2023/07/28 01:21:37;;;;;;;;;;;;;;;17.27;100.00;100444.03;5052468;28;20274;-83
2023/07/28 01:24:10;;;;;;;;;;;;;;;17.27;100.00;100446.72;5048202;28;19952;-83
2023/07/28 01:26:36;;;;;;;;;;;;;;;17.28;100.00;100443.06;5053945;28;19921;-83
2023/07/28 01:29:02;;;;;;;;;;;;;;;17.28;100.00;100448.41;5051429;28;20267;-83
2023/07/28 01:31:27;;;;;;;;;;;;;;;17.26;100.00;100445.06;5050859;28;19955;-83
2023/07/28 01:33:52;;;;;;;;;;;;;;;17.27;100.00;100449.41;5048244;28;19917;-83
2023/07/28 01:36:18;;;;;;;;;;;;;;;17.26;100.00;100448.59;5049782;28;19920;-83
2023/07/28 01:38:43;;;;;;;;;;;;;;;17.23;100.00;100440.88;5048273;28;19920;-83
2023/07/28 01:41:08;;;;;;;;;;;;;;;17.27;100.00;100444.03;5050497;28;19981;-83
2023/07/28 01:43:33;;;;;;;;;;;;;;;17.27;100.00;100447.59;5050085;28;19961;-83
2023/07/28 01:45:58;;;;;;;;;;;;;;;17.28;100.00;100445.72;5052925;28;19920;-83
2023/07/28 01:48:23;;;;;;;;;;;;;;;17.29;100.00;100453.63;5045859;28;19913;-83
2023/07/28 01:50:49;;;;;;;;;;;;;;;17.29;100.00;100450.94;5050616;28;19917;-83
2023/07/28 01:53:14;;;;;;;;;;;;;;;17.29;100.00;100450.09;5053400;28;20008;-83
2023/07/28 01:55:39;;;;;;;;;;;;;;;17.29;100.00;100453.63;5051231;28;19913;-83
2023/07/28 01:58:04;;;;;;;;;;;;;;;17.30;100.00;100451.75;5052608;28;20335;-83
2023/07/28 02:00:30;;;;;;;;;;;;;;;17.30;100.00;100455.31;5052413;28;20007;-83
2023/07/28 02:02:56;;;;;;;;;;;;;;;17.30;100.00;100446.38;5051302;28;19913;-83
2023/07/28 02:05:21;;;;;;;;;;;;;;;17.30;100.00;100455.31;5051145;28;20007;-83
2023/07/28 02:07:46;;;;;;;;;;;;;;;17.30;100.00;100455.31;5053627;28;20024;-83
2023/07/28 02:10:12;;;;;;;;;;;;;;;17.29;100.00;100453.63;5047925;28;19951;-83
2023/07/28 02:12:38;;;;;;;;;;;;;;;17.29;100.00;100444.75;5050864;28;19978;-83
2023/07/28 02:15:04;;;;;;;;;;;;;;;17.29;100.00;100442.88;5051955;28;19982;-83
2023/07/28 02:17:30;;;;;;;;;;;;;;;17.30;100.00;100444.56;5052935;28;19920;-83
2023/07/28 02:19:55;;;;;;;;;;;;;;;17.30;100.00;100444.56;5050787;28;19921;-83
2023/07/28 02:22:20;;;;;;;;;;;;;;;17.31;100.00;100442.72;5048205;28;20347;-83
2023/07/28 02:24:45;;;;;;;;;;;;;;;17.30;100.00;100447.25;5049052;28;19921;-83
2023/07/28 02:27:10;;;;;;;;;;;;;;;17.31;100.00;100450.75;5045636;28;20228;-83
2023/07/28 02:29:36;;;;;;;;;;;;;;;17.31;100.00;100451.59;5048754;28;19917;-83
2023/07/28 02:32:01;;;;;;;;;;;;;;;17.31;100.00;100454.28;5046058;28;19944;-83
2023/07/28 02:34:26;;;;;;;;;;;;;;;17.31;100.00;100456.13;5047465;28;19998;-83
2023/07/28 02:36:51;;;;;;;;;;;;;;;17.30;100.00;100451.75;5047361;28;19923;-83
2023/07/28 02:39:16;;;;;;;;;;;;;;;17.28;100.00;100449.25;5052965;28;20588;-83
2023/07/28 02:41:42;;;;;;;;;;;;;;;17.30;100.00;100449.06;5049008;28;19913;-83
2023/07/28 02:44:07;;;;;;;;;;;;;;;17.30;100.00;100455.31;5051347;28;20466;-83
2023/07/28 02:46:32;;;;;;;;;;;;;;;17.31;100.00;100448.09;5048845;28;19917;-83
2023/07/28 02:48:57;;;;;;;;;;;;;;;17.30;100.00;100455.31;5049006;28;19927;-83
2023/07/28 02:51:23;;;;;;;;;;;;;;;17.30;100.00;100457.13;5046510;28;20016;-83
2023/07/28 02:53:48;;;;;;;;;;;;;;;17.29;100.00;100464.34;5052629;28;20362;-83
2023/07/28 02:56:14;;;;;;;;;;;;;;;17.31;100.00;100470.38;5049046;28;19962;-83
2023/07/28 02:58:39;;;;;;;;;;;;;;;17.30;100.00;100465.19;5052828;28;19943;-83
2023/07/28 03:01:04;;;;;;;;;;;;;;;17.30;100.00;100467.88;5051742;28;19912;-83
2023/07/28 03:03:29;;;;;;;;;;;;;;;17.30;100.00;100463.34;5054385;28;19927;-83
2023/07/28 03:05:54;;;;;;;;;;;;;;;17.30;100.00;100466.03;5051036;28;19971;-83
2023/07/28 03:08:20;;;;;;;;;;;;;;;17.30;100.00;100467.88;5051213;28;19917;-83
2023/07/28 03:10:45;;;;;;;;;;;;;;;17.27;100.00;100462.84;5055466;28;20007;-83
2023/07/28 03:13:10;;;;;;;;;;;;;;;17.30;100.00;100467.88;5053970;28;19913;-83
2023/07/28 03:15:36;;;;;;;;;;;;;;;17.31;100.00;100464.19;5055574;28;19920;-83
2023/07/28 03:18:01;;;;;;;;;;;;;;;17.31;100.00;100472.25;5051480;28;20014;-83
2023/07/28 03:20:26;;;;;;;;;;;;;;;17.31;100.00;100469.56;5048817;28;20395;-83
2023/07/28 03:22:51;;;;;;;;;;;;;;;17.31;100.00;100473.06;5051378;28;20319;-83
2023/07/28 03:25:17;;;;;;;;;;;;;;;17.31;100.00;100473.06;5048159;28;19917;-83
2023/07/28 03:27:42;;;;;;;;;;;;;;;17.32;100.00;100473.91;5048397;28;19924;-83
2023/07/28 03:30:10;;;;;;;;;;;;;;;17.32;100.00;100476.59;5054130;28;19923;-83
2023/07/28 03:32:35;;;;;;;;;;;;;;;17.32;100.00;100484.63;5046716;28;19916;-83
2023/07/28 03:35:00;;;;;;;;;;;;;;;17.32;100.00;100484.63;5053653;28;19938;-83
2023/07/28 03:37:26;;;;;;;;;;;;;;;17.32;100.00;100480.13;5046787;28;19975;-83
2023/07/28 03:39:51;;;;;;;;;;;;;;;17.31;100.00;100481.13;5050121;28;19924;-83
2023/07/28 03:42:16;;;;;;;;;;;;;;;17.32;100.00;100490.00;5046896;28;20058;-82
2023/07/28 03:44:41;;;;;;;;;;;;;;;17.33;100.00;100489.84;5049479;28;19948;-83
2023/07/28 03:47:07;;;;;;;;;;;;;;;17.32;100.00;100506.09;5045907;28;20297;-83
2023/07/28 03:49:32;;;;;;;;;;;;;;;17.33;100.00;100497.06;5055259;28;20362;-83
2023/07/28 03:51:58;;;;;;;;;;;;;;;17.33;100.00;100505.13;5048853;28;19917;-83
2023/07/28 03:54:23;;;;;;;;;;;;;;;17.32;100.00;100498.06;5052182;28;19921;-83
2023/07/28 03:56:48;;;;;;;;;;;;;;;17.33;100.00;100503.25;5049259;28;20398;-82
2023/07/28 03:59:13;;;;;;;;;;;;;;;17.32;100.00;100501.59;5053741;28;19917;-83
2023/07/28 04:01:39;;;;;;;;;;;;;;;17.34;100.00;100504.13;5051505;28;19925;-83
2023/07/28 04:04:04;;;;;;;;;;;;;;;17.33;100.00;100497.06;5049391;28;20358;-82
2023/07/28 04:06:42;;;;;;;;;;;;;;;17.33;100.00;100502.44;5052056;28;20402;-82
2023/07/28 04:09:08;;;;;;;;;;;;;;;17.32;100.00;100509.66;5047952;28;19923;-83
2023/07/28 04:11:33;;;;;;;;;;;;;;;17.32;100.00;100508.78;5051897;28;20007;-83
2023/07/28 04:13:58;;;;;;;;;;;;;;;17.31;100.00;100507.13;5056690;28;19916;-83
2023/07/28 04:16:23;;;;;;;;;;;;;;;17.31;100.00;100502.59;5057992;28;19913;-83
2023/07/28 04:18:48;;;;;;;;;;;;;;;17.31;100.00;100502.59;5053508;28;19935;-82
2023/07/28 04:21:14;;;;;;;;;;;;;;;17.31;100.00;100499.09;5057593;28;19923;-83
2023/07/28 04:23:39;;;;;;;;;;;;;;;17.30;100.00;100492.88;5057497;28;20373;-82
2023/07/28 04:26:04;;;;;;;;;;;;;;;17.30;100.00;100498.25;5057360;28;19920;-83
2023/07/28 04:28:29;;;;;;;;;;;;;;;17.30;100.00;100500.06;5057765;28;19917;-82
2023/07/28 04:30:54;;;;;;;;;;;;;;;17.31;100.00;100507.13;5057481;28;19912;-82
2023/07/28 04:33:20;;;;;;;;;;;;;;;17.31;100.00;100504.44;5057218;28;19919;-82
2023/07/28 04:35:45;;;;;;;;;;;;;;;17.31;100.00;100510.66;5057155;28;19965;-82
2023/07/28 04:38:10;;;;;;;;;;;;;;;17.30;100.00;100495.56;5056704;28;19920;-82
2023/07/28 04:40:36;;;;;;;;;;;;;;;17.31;100.00;100502.59;5049223;28;20425;-82
2023/07/28 04:43:02;;;;;;;;;;;;;;;17.31;100.00;100502.59;5052717;28;19952;-82
2023/07/28 04:45:27;;;;;;;;;;;;;;;17.32;100.00;100503.41;5056772;28;19919;-82
2023/07/28 04:47:52;;;;;;;;;;;;;;;17.32;100.00;100500.75;5057731;28;20007;-83
2023/07/28 04:50:18;;;;;;;;;;;;;;;17.32;100.00;100506.09;5038420;28;19939;-82
2023/07/28 04:52:43;;;;;;;;;;;;;;;17.31;100.00;100499.91;5047489;28;19919;-83
2023/07/28 04:55:08;;;;;;;;;;;;;;;17.32;100.00;100506.97;5056341;28;19995;-82
2023/07/28 04:57:33;;;;;;;;;;;;;;;17.32;100.00;100504.28;5049966;28;20373;-82
2023/07/28 04:59:59;;;;;;;;;;;;;;;17.33;100.00;100505.94;5041228;28;19920;-83
2023/07/28 05:02:24;;;;;;;;;;;;;;;17.34;100.00;100504.13;5056419;28;19960;-82
2023/07/28 05:04:49;;;;;;;;;;;;;;;17.34;100.00;100501.44;5072974;28;19952;-82
2023/07/28 05:07:14;;;;;;;;;;;;;;;17.35;100.00;100503.94;5052276;28;19987;-83
2023/07/28 05:09:40;;;;;;;;;;;;;;;17.36;100.00;100510.16;5056248;28;19919;-83
2023/07/28 05:12:05;;;;;;;;;;;;;;;17.38;100.00;100510.81;5058840;28;19919;-83
2023/07/28 05:14:30;;;;;;;;;;;;;;;17.40;100.00;100514.16;5058266;28;19982;-82
2023/07/28 05:16:55;;;;;;;;;;;;;;;17.42;100.00;100522.91;5055645;28;19947;-82
2023/07/28 05:19:21;;;;;;;;;;;;;;;17.43;100.00;100521.03;5051067;28;19913;-82
2023/07/28 05:21:46;;;;;;;;;;;;;;;17.44;100.00;100520.88;5054548;28;19935;-82
2023/07/28 05:24:12;;;;;;;;;;;;;;;17.45;100.00;100522.53;5054977;28;20375;-82
2023/07/28 05:26:37;;;;;;;;;;;;;;;17.47;100.00;100530.41;5052939;28;19952;-82
2023/07/28 05:29:02;;;;;;;;;;;;;;;17.49;100.00;100531.09;5038260;28;20407;-82
2023/07/28 05:31:27;;;;;;;;;;;;;;;17.49;100.00;100536.47;5055985;28;19960;-82
2023/07/28 05:33:53;;;;;;;;;;;;;;;17.50;100.00;100547.06;5055328;28;20362;-82
2023/07/28 05:36:19;;;;;;;;;;;;;;;17.51;100.00;100540.66;5055686;28;19926;-82
2023/07/28 05:38:44;;;;;;;;;;;;;;;17.53;100.00;100546.69;5047950;28;19913;-82
2023/07/28 05:41:09;;;;;;;;;;;;;;;17.55;100.00;100550.06;5054561;28;19913;-83
2023/07/28 05:43:34;;;;;;;;;;;;;;;17.56;100.00;100543.66;5056133;28;19913;-83
2023/07/28 05:46:00;;;;;;;;;;;;;;;17.59;100.00;100552.41;5060558;28;19920;-82
2023/07/28 05:48:25;;;;;;;;;;;;;;;17.59;100.00;100555.09;5050541;28;19913;-82
2023/07/28 05:50:53;;;;;;;;;;;;;;;17.60;100.00;100556.75;5051177;28;20289;-82
2023/07/28 05:53:19;;;;;;;;;;;;;;;17.61;100.00;100556.59;5049260;28;19995;-83
2023/07/28 05:55:45;;;;;;;;;;;;;;;17.62;100.00;100555.59;5054165;28;20607;-83
2023/07/28 05:58:10;;;;;;;;;;;;;;;17.64;100.00;100558.09;5056137;28;19916;-82
2023/07/28 06:00:39;;;;;;;;;;;;;;;17.66;100.00;100558.75;5056494;28;19912;-83
2023/07/28 06:03:04;;;;;;;;;;;;;;;17.67;100.00;100555.91;5056968;28;19920;-82
2023/07/28 06:05:29;;;;;;;;;;;;;;;17.68;100.00;100557.56;5065281;28;20283;-82
2023/07/28 06:07:54;;;;;;;;;;;;;;;17.69;100.00;100563.78;5055329;28;20256;-83
2023/07/28 06:10:20;;;;;;;;;;;;;;;17.69;100.00;100559.25;5052845;28;19913;-83
2023/07/28 06:12:45;;;;;;;;;;;;;;;17.71;100.00;100562.59;5055532;28;19939;-83
2023/07/28 06:15:10;;;;;;;;;;;;;;;17.71;100.00;100557.22;5053461;28;19962;-84
2023/07/28 06:17:35;;;;;;;;;;;;;;;17.73;100.00;100557.88;5050963;28;19990;-83
2023/07/28 06:20:00;;;;;;;;;;;;;;;17.75;100.00;100558.56;5053788;28;19919;-84
2023/07/28 06:22:26;;;;;;;;;;;;;;;17.76;100.00;100562.91;5053729;28;19916;-83
2023/07/28 06:24:51;;;;;;;;;;;;;;;17.78;100.00;100561.94;5064299;28;19913;-84
2023/07/28 06:27:16;;;;;;;;;;;;;;;17.79;100.00;100558.25;5056576;28;19982;-83
2023/07/28 06:29:41;;;;;;;;;;;;;;;17.80;100.00;100571.47;5070259;28;19936;-83
2023/07/28 06:32:07;;;;;;;;;;;;;;;17.83;100.00;100567.63;5065718;28;19916;-83
2023/07/28 06:34:32;;;;;;;;;;;;;;;17.85;100.00;100568.28;5062796;28;19939;-83
2023/07/28 06:36:58;;;;;;;;;;;;;;;17.86;100.00;100578.84;5061535;28;19980;-83
2023/07/28 06:39:24;;;;;;;;;;;;;;;17.88;100.00;100573.34;5055389;28;20212;-83
2023/07/28 06:41:49;;;;;;;;;;;;;;;17.90;100.00;100582.91;5054380;28;20042;-83
2023/07/28 06:44:14;;;;;;;;;;;;;;;17.92;100.00;100574.69;5061428;28;20321;-84
2023/07/28 06:46:39;;;;;;;;;;;;;;;17.94;100.00;100584.25;5058992;28;19920;-83
2023/07/28 06:49:05;;;;;;;;;;;;;;;17.96;100.00;100584.06;5055420;28;19912;-84
2023/07/28 06:51:30;;;;;;;;;;;;;;;17.97;100.00;100585.75;5064024;28;19920;-83
2023/07/28 06:53:56;;;;;;;;;;;;;;;17.98;100.00;100582.03;5067693;28;19912;-83
2023/07/28 06:56:21;;;;;;;;;;;;;;;17.99;100.00;100585.59;5065441;28;19917;-83
2023/07/28 06:58:47;;;;;;;;;;;;;;;18.01;100.00;100589.75;5054648;28;19917;-83
2023/07/28 07:01:12;;;;;;;;;;;;;;;18.02;100.00;100585.22;5062296;28;20263;-83
2023/07/28 07:03:37;;;;;;;;;;;;;;;18.03;100.00;100598.47;5055403;28;19924;-83
2023/07/28 07:06:02;;;;;;;;;;;;;;;18.04;100.00;100600.16;5052140;28;19951;-83
2023/07/28 07:08:28;;;;;;;;;;;;;;;18.06;100.00;100605.38;5050384;28;20385;-83
2023/07/28 07:10:53;;;;;;;;;;;;;;;18.06;100.00;100598.16;5053965;28;20334;-83
2023/07/28 07:13:19;;;;;;;;;;;;;;;18.07;100.00;100599.84;5055301;28;19983;-83
2023/07/28 07:15:45;;;;;;;;;;;;;;;18.10;100.00;100606.69;5045425;28;19912;-82
2023/07/28 07:18:10;;;;;;;;;;;;;;;18.12;100.00;100602.84;5055762;28;19967;-82
2023/07/28 07:20:36;;;;;;;;;;;;;;;18.15;100.00;100603.50;5057113;28;19912;-82
2023/07/28 07:23:01;;;;;;;;;;;;;;;18.17;100.00;100609.53;5056141;28;20381;-83
2023/07/28 07:25:26;;;;;;;;;;;;;;;18.19;100.00;100620.97;5074434;28;19917;-85
2023/07/28 07:27:52;;;;;;;;;;;;;;;18.20;100.00;100610.03;5065990;28;20359;-84
2023/07/28 07:30:17;;;;;;;;;;;;;;;18.22;100.00;100612.53;5056468;28;19970;-84
2023/07/28 07:32:43;;;;;;;;;;;;;;;18.25;100.00;100621.13;5041221;28;20407;-84
2023/07/28 07:35:08;;;;;;;;;;;;;;;18.26;100.00;100624.63;5047769;28;19925;-84
2023/07/28 07:37:34;;;;;;;;;;;;;;;18.29;100.00;100618.91;5035407;28;19963;-85
2023/07/28 07:40:01;;;;;;;;;;;;;;;18.31;100.00;100623.09;5049864;28;19917;-85
2023/07/28 07:42:26;;;;;;;;;;;;;;;18.35;100.00;100628.13;5052881;28;20011;-84
2023/07/28 07:44:51;;;;;;;;;;;;;;;18.37;100.00;100621.56;5054048;28;20347;-84
2023/07/28 07:47:16;;;;;;;;;;;;;;;18.41;100.00;100624.75;5056391;28;19913;-84
2023/07/28 07:49:42;;;;;;;;;;;;;;;18.45;100.00;100631.44;5060904;28;19967;-84
2023/07/28 07:52:10;;;;;;;;;;;;;;;18.48;100.00;100634.66;5057820;28;19913;-83
2023/07/28 07:54:36;;;;;;;;;;;;;;;18.49;100.00;100628.22;5054737;28;19921;-83
2023/07/28 07:57:01;;;;;;;;;;;;;;;18.52;100.00;100624.38;5060011;28;19999;-84
2023/07/28 07:59:30;;;;;;;;;;;;;;;18.54;100.00;100632.25;5052468;28;19913;-84
2023/07/28 08:01:55;;;;;;;;;;;;;;;18.56;100.00;100625.69;5060336;28;20278;-84
2023/07/28 08:04:20;;;;;;;;;;;;;;;18.58;100.00;100623.66;5056880;28;19923;-84
2023/07/28 08:06:46;;;;;;;;;;;;;;;18.60;100.00;100632.41;5061021;28;19919;-84
2023/07/28 08:09:11;;;;;;;;;;;;;;;18.63;100.00;100631.19;5053317;28;19917;-84
2023/07/28 08:11:36;;;;;;;;;;;;;;;18.66;100.00;100636.22;5051185;28;19913;-85
2023/07/28 08:14:01;;;;;;;;;;;;;;;18.67;100.00;100629.84;5055483;28;19912;-84
2023/07/28 08:16:26;;;;;;;;;;;;;;;18.68;100.00;100636.88;5057629;28;20011;-83
2023/07/28 08:18:52;;;;;;;;;;;;;;;18.72;100.00;100638.22;5053948;28;20371;-83
2023/07/28 08:21:17;;;;;;;;;;;;;;;18.76;100.00;100641.41;5044403;28;19939;-84
2023/07/28 08:23:42;;;;;;;;;;;;;;;18.78;100.00;100642.06;5058953;28;19946;-84
2023/07/28 08:26:08;;;;;;;;;;;;;;;18.80;100.00;100651.63;5058091;28;20310;-84
2023/07/28 08:28:33;;;;;;;;;;;;;;;18.82;100.00;100648.78;5057614;28;19913;-84
2023/07/28 08:30:59;;;;;;;;;;;;;;;18.85;100.00;100643.91;5056653;28;19940;-84
2023/07/28 08:33:24;;;;;;;;;;;;;;;18.89;100.00;100652.47;5051829;28;20387;-83
2023/07/28 08:35:49;;;;;;;;;;;;;;;18.94;100.00;100655.44;5054498;28;20337;-84
2023/07/28 08:38:15;;;;;;;;;;;;;;;19.01;100.00;100655.59;5059332;28;19921;-84
2023/07/28 08:40:43;;;;;;;;;;;;;;;19.07;100.00;100649.50;5060414;28;20624;-84
2023/07/28 08:43:09;;;;;;;;;;;;;;;19.12;100.00;100655.19;5064706;28;19938;-84
2023/07/28 08:45:34;;;;;;;;;;;;;;;19.21;100.00;100645.19;5058204;28;20003;-84
2023/07/28 08:48:00;;;;;;;;;;;;;;;19.29;100.00;100658.59;5056845;28;19999;-84
2023/07/28 08:50:25;;;;;;;;;;;;;;;19.40;100.00;100657.31;5063606;28;19923;-85
2023/07/28 08:52:51;;;;;;;;;;;;;;;19.50;100.00;100663.31;5055488;28;20020;-86
2023/07/28 08:55:16;;;;;;;;;;;;;;;19.62;100.00;100658.34;5046981;28;20046;-84
2023/07/28 08:57:44;;;;;;;;;;;;;;;19.71;100.00;100657.22;5053678;28;19920;-84
2023/07/28 09:00:13;;;;;;;;;;;;;;;19.82;100.00;100652.44;5054133;28;19913;-85
2023/07/28 09:02:38;;;;;;;;;;;;;;;19.94;100.00;100654.53;5054207;28;19923;-85
2023/07/28 09:05:05;;;;;;;;;;;;;;;20.11;100.00;100659.75;5055977;28;20011;-87
2023/07/28 09:07:35;;;;;;;;;;;;;;;20.26;100.00;100652.50;5055686;28;19912;-87
2023/07/28 09:10:01;;;;;;;;;;;;;;;20.47;100.00;100662.56;5051099;28;19920;-88
2023/07/28 09:12:26;;;;;;;;;;;;;;;20.62;100.00;100659.84;5056120;28;19913;-88
2023/07/28 09:14:56;;;;;;;;;;;;;;;20.79;100.00;100663.19;5055929;28;19913;-91
2023/07/28 09:17:21;;;;;;;;;;;;;;;20.99;100.00;100663.41;5056865;28;19913;-90
2023/07/28 09:19:51;;;;;;;;;;;;;;;21.18;100.00;100655.72;5056449;28;19919;-88
2023/07/28 09:22:16;;;;;;;;;;;;;;;21.37;100.00;100668.59;5054660;28;19913;-88
2023/07/28 09:24:42;;;;;;;;;;;;;;;21.52;100.00;100656.94;5055806;28;19920;-87
2023/07/28 09:27:18;;;;;;;;;;;;;;;21.69;100.00;100668.28;5055228;28;19917;-86
2023/07/28 09:29:47;;;;;;;;;;;;;;;21.88;100.00;100662.19;5047106;28;19939;-85
2023/07/28 09:32:13;;;;;;;;;;;;;;;22.04;100.00;100671.88;5050377;28;19913;-85
2023/07/28 09:34:38;;;;;;;;;;;;;;;22.20;100.00;100662.63;5051765;28;20042;-85
2023/07/28 09:37:05;;;;;;;;;;;;;;;22.31;100.00;100662.09;5037777;28;20024;-85
2023/07/28 09:39:33;;;;;;;;;;;;;;;22.40;100.00;100661.94;5055267;28;20325;-86
2023/07/28 09:42:02;;;;;;;;;;;;;;;22.48;100.00;100665.31;5057262;28;19917;-86
2023/07/28 09:44:28;;;;;;;;;;;;;;;22.60;100.00;100668.28;5046765;28;19913;-85
2023/07/28 09:46:59;;;;;;;;;;;;;;;22.71;100.00;100669.56;5056633;28;19919;-86
2023/07/28 09:49:34;;;;;;;;;;;;;;;22.85;100.00;100676.72;5065679;28;19912;-86
2023/07/28 09:52:08;;;;;;;;;;;;;;;22.94;100.00;100671.13;5050496;28;19914;-85
2023/07/28 09:54:41;;;;;;;;;;;;;;;22.95;100.00;100660.09;5051326;28;19959;-86
2023/07/28 09:57:13;;;;;;;;;;;;;;;22.98;100.00;100675.09;5049639;28;19967;-86
2023/07/28 09:59:40;;;;;;;;;;;;;;;23.00;100.00;100673.00;5055818;28;19920;-85
2023/07/28 10:02:05;;;;;;;;;;;;;;;23.04;100.00;100677.81;5041292;28;19913;-85
2023/07/28 10:04:31;;;;;;;;;;;;;;;23.08;100.00;100679.13;5047521;28;19912;-86
2023/07/28 10:06:56;;;;;;;;;;;;;;;23.08;100.00;100679.13;5074335;28;19913;-86
2023/07/28 10:09:33;;;;;;;;;;;;;;;23.08;100.00;100680.97;5057222;28;20436;-86
2023/07/28 10:11:59;;;;;;;;;;;;;;;23.05;100.00;100676.78;5051002;28;19916;-86
2023/07/28 10:14:29;;;;;;;;;;;;;;;23.06;100.00;100683.88;5047558;28;20299;-86
2023/07/28 10:16:54;;;;;;;;;;;;;;;23.05;100.00;100686.78;5056140;28;19975;-86
2023/07/28 10:19:20;;;;;;;;;;;;;;;23.02;100.00;100679.91;5052462;28;20392;-87
2023/07/28 10:21:45;;;;;;;;;;;;;;;23.02;100.00;100679.91;5053435;28;19921;-87
2023/07/28 10:24:10;;;;;;;;;;;;;;;23.08;100.00;100684.53;5056710;28;19982;-86
2023/07/28 10:26:37;;;;;;;;;;;;;;;23.17;99.89;100687.06;5056819;28;19917;-87
2023/07/28 10:29:10;;;;;;;;;;;;;;;23.23;98.65;100681.66;5035586;28;19915;-86
2023/07/28 10:31:36;;;;;;;;;;;;;;;23.27;99.32;100692.91;5057165;28;19917;-86
2023/07/28 10:34:01;;;;;;;;;;;;;;;23.34;97.76;100682.91;5055501;28;19921;-86
2023/07/28 10:36:26;;;;;;;;;;;;;;;23.44;99.75;100686.06;5055575;28;19935;-86
2023/07/28 10:39:01;;;;;;;;;;;;;;;23.55;99.15;100691.91;5055381;28;19917;-85
2023/07/28 10:41:26;;;;;;;;;;;;;;;23.61;95.63;100685.66;5053203;28;19913;-86
2023/07/28 10:43:52;;;;;;;;;;;;;;;23.69;96.49;100684.63;5053830;28;19917;-87
2023/07/28 10:46:18;;;;;;;;;;;;;;;23.75;94.93;100679.22;5054103;28;19924;-87
2023/07/28 10:48:44;;;;;;;;;;;;;;;23.85;96.42;100681.53;5052822;28;19912;-86
2023/07/28 10:51:11;;;;;;;;;;;;;;;24.00;96.30;100676.72;5052529;28;19912;-86
2023/07/28 10:53:36;;;;;;;;;;;;;;;24.17;95.76;100674.41;5045193;28;19916;-87
2023/07/28 10:56:03;;;;;;;;;;;;;;;24.33;95.30;100675.84;5053438;28;20286;-88
2023/07/28 10:58:28;;;;;;;;;;;;;;;24.49;95.27;100677.22;5052534;28;19923;-87
2023/07/28 11:00:54;;;;;;;;;;;;;;;24.67;95.04;100675.75;5053666;28;19912;-87
2023/07/28 11:03:20;;;;;;;;;;;;;;;24.85;94.79;100681.31;5053546;28;20270;-86
2023/07/28 11:05:45;;;;;;;;;;;;;;;25.04;94.10;100681.44;5053097;28;20011;-88
2023/07/28 11:08:10;;;;;;;;;;;;;;;25.30;93.99;100678.59;5051694;28;20047;-88
2023/07/28 11:10:36;;;;;;;;;;;;;;;25.55;90.63;100677.78;5054070;28;19912;-88
2023/07/28 11:13:02;;;;;;;;;;;;;;;25.78;nan;100682.63;5053711;28;19913;-87
2023/07/28 11:15:27;;;;;;;;;;;;;;;26.06;90.03;100669.63;5053601;28;19920;-87
2023/07/28 11:17:53;;;;;;;;;;;;;;;26.32;89.10;100665.81;5053968;28;19912;-87
2023/07/28 11:20:19;;;;;;;;;;;;;;;26.58;87.16;100673.66;5053852;28;19978;-86
2023/07/28 11:22:45;;;;;;;;;;;;;;;26.79;82.86;100665.28;5053618;28;19913;-87
2023/07/28 11:25:10;;;;;;;;;;;;;;;27.04;85.29;100665.16;5053672;28;19913;-87
2023/07/28 11:27:37;;;;;;;;;;;;;;;27.27;81.89;100670.66;5053778;28;19970;-88
2023/07/28 11:30:05;;;;;;;;;;;;;;;27.42;83.72;100664.81;5053902;28;19912;-87
2023/07/28 11:32:30;;;;;;;;;;;;;;;27.60;82.35;100669.34;5054156;28;19913;-87
2023/07/28 11:35:03;;;;;;;;;;;;;;;27.77;82.79;100672.22;5054156;28;20007;-87
2023/07/28 11:37:29;;;;;;;;;;;;;;;27.81;79.89;100669.84;5046926;28;19917;-87
2023/07/28 11:42:00;;;;;;;0.95;0.90;;;;;;;27.31;66.04;100671.06;5098507;27;1212654;-47
2023/07/28 11:44:25;;;;;;;1.10;1.00;;;;;;;27.19;65.18;100673.72;5129144;27;20039;-47
2023/07/28 11:46:54;;;;;;;2.25;1.00;;;;;;;27.09;65.49;100670.72;5136230;27;20022;-48
2023/07/28 11:49:23;;;;;;;2.55;1.00;;;;;;;26.85;66.16;100672.53;5132226;27;20123;-47
2023/07/28 11:51:52;;;;;;;2.15;0.90;;;;;;;26.76;66.13;100670.13;5131771;27;20092;-48
2023/07/28 11:54:21;;;;;;;0.73;0.73;;;;;;;26.78;65.88;100669.91;5132610;27;20396;-48
2023/07/28 11:56:48;;;;;;;0.73;0.70;;;;;;;26.59;65.02;100675.31;5128269;27;20031;-47
2023/07/28 11:59:20;;;;;;;5.53;1.60;;;;;;;26.39;66.85;100677.44;5122307;27;20038;-47
2023/07/28 12:01:56;;;;;;;2.63;1.20;;;;;;;26.38;69.80;100683.97;5121683;27;20584;-47
2023/07/28 12:04:23;;;;;;;1.42;0.80;;;;;;;26.07;70.05;100683.03;5138050;27;20035;-47
2023/07/28 12:07:06;;;;;;;0.85;0.80;;;;;;;26.11;69.09;100681.50;5130623;27;20024;-47
2023/07/28 12:09:31;;;;;;;2.35;0.80;;;;;;;25.89;68.68;100675.63;5134824;27;20046;-47
2023/07/28 12:11:59;;;;;;;0.70;0.70;;;;;;;25.65;69.79;100683.56;5122394;27;20031;-47
2023/07/28 12:14:34;;;;;;;0.85;0.73;;;;;;;25.63;70.63;100680.25;5130288;27;20397;-47
2023/07/28 12:17:01;;;;;;;0.70;0.68;;;;;;;25.41;70.79;100685.19;5127921;27;20036;-46
2023/07/28 12:19:27;;;;;;;0.80;0.80;;;;;;;25.43;69.47;100685.81;5135737;27;20023;-47